createdAt,value
2019-04-03T00:00:04.393Z,3.30
2019-04-03T00:01:04.842Z,3.90
2019-04-03T00:02:04.933Z,4.30
2019-04-03T00:03:04.686Z,2.90
2019-04-03T00:04:04.709Z,3.50
2019-04-03T00:05:04.591Z,4.00
2019-04-03T00:06:09.053Z,3.50
2019-04-03T00:07:05.558Z,4.20
2019-04-03T00:08:06.009Z,3.60
2019-04-03T00:09:06.426Z,3.20
2019-04-03T00:10:06.626Z,3.60
2019-04-03T00:11:08.562Z,3.80
2019-04-03T00:12:06.930Z,4.40
2019-04-03T00:13:05.516Z,3.30
2019-04-03T00:14:05.722Z,4.40
2019-04-03T00:15:05.942Z,3.30
2019-04-03T00:16:06.163Z,3.40
2019-04-03T00:17:06.387Z,4.20
2019-04-03T00:18:06.510Z,3.40
2019-04-03T00:19:06.725Z,3.40
2019-04-03T00:20:06.977Z,3.50
2019-04-03T00:21:07.162Z,3.70
2019-04-03T00:22:07.264Z,3.30
2019-04-03T00:23:07.570Z,4.50
2019-04-03T00:24:07.697Z,3.50
2019-04-03T00:25:07.949Z,3.40
2019-04-03T00:26:08.103Z,3.90
2019-04-03T00:27:09.309Z,3.60
2019-04-03T00:28:08.527Z,3.70
2019-04-03T00:29:08.741Z,3.50
2019-04-03T00:30:09.061Z,3.40
2019-04-03T00:31:10.940Z,3.80
2019-04-03T00:32:09.270Z,4.10
2019-04-03T00:33:09.468Z,3.30
2019-04-03T00:34:09.676Z,3.90
2019-04-03T00:35:09.896Z,3.90
2019-04-03T00:36:10.113Z,3.50
2019-04-03T00:37:10.326Z,3.70
2019-04-03T00:38:10.537Z,4.30
2019-04-03T00:39:10.897Z,5.00
2019-04-03T00:40:10.962Z,4.30
2019-04-03T00:41:11.165Z,4.20
2019-04-03T00:42:11.389Z,5.40
2019-04-03T00:43:11.590Z,3.40
2019-04-03T00:44:11.806Z,4.70
2019-04-03T00:45:13.934Z,3.50
2019-04-03T00:46:12.138Z,3.50
2019-04-03T00:47:13.942Z,4.20
2019-04-03T00:48:12.534Z,4.30
2019-04-03T00:49:14.446Z,4.90
2019-04-03T00:50:12.885Z,3.60
2019-04-03T00:51:15.061Z,4.00
2019-04-03T00:52:14.933Z,3.70
2019-04-03T00:53:14.941Z,3.60
2019-04-03T00:54:13.535Z,3.80
2019-04-03T00:55:13.742Z,4.00
2019-04-03T00:56:13.955Z,4.40
2019-04-03T00:57:14.173Z,4.10
2019-04-03T00:58:14.468Z,3.90
2019-04-03T00:59:14.586Z,4.20
2019-04-03T01:00:16.439Z,3.60
2019-04-03T01:01:15.030Z,3.90
2019-04-03T01:02:16.940Z,3.80
2019-04-03T01:03:15.408Z,4.00
2019-04-03T01:04:15.622Z,3.80
2019-04-03T01:05:15.834Z,4.40
2019-04-03T01:06:19.932Z,4.30
2019-04-03T01:07:16.261Z,3.70
2019-04-03T01:08:16.468Z,3.70
2019-04-03T01:09:16.698Z,3.80
2019-04-03T01:10:16.785Z,3.90
2019-04-03T01:11:16.992Z,4.20
2019-04-03T01:12:17.351Z,3.60
2019-04-03T01:13:17.441Z,4.60
2019-04-03T01:14:19.447Z,3.50
2019-04-03T01:15:17.770Z,4.20
2019-04-03T01:16:17.980Z,4.10
2019-04-03T01:17:19.080Z,4.00
2019-04-03T01:18:19.945Z,3.80
2019-04-03T01:19:18.529Z,3.50
2019-04-03T01:20:20.441Z,3.80
2019-04-03T01:21:18.888Z,4.00
2019-04-03T01:22:19.087Z,3.60
2019-04-03T01:23:19.318Z,4.40
2019-04-03T01:24:19.750Z,4.40
2019-04-03T01:25:19.862Z,3.90
2019-04-03T01:26:19.953Z,4.50
2019-04-03T01:27:21.166Z,4.00
2019-04-03T01:28:20.366Z,4.40
2019-04-03T01:29:20.582Z,4.60
2019-04-03T01:30:20.795Z,3.60
2019-04-03T01:31:20.999Z,4.20
2019-04-03T01:32:21.206Z,4.00
2019-04-03T01:33:21.417Z,4.30
2019-04-03T01:34:23.440Z,4.40
2019-04-03T01:35:21.782Z,5.20
2019-04-03T01:36:21.984Z,4.80
2019-04-03T01:37:22.199Z,3.90
2019-04-03T01:38:22.403Z,4.50
2019-04-03T01:39:22.630Z,4.20
2019-04-03T01:40:22.888Z,4.00
2019-04-03T01:41:23.057Z,4.20
2019-04-03T01:42:26.948Z,4.20
2019-04-03T01:43:23.620Z,4.20
2019-04-03T01:44:24.703Z,4.00
2019-04-03T01:45:25.612Z,3.80
2019-04-03T01:46:24.047Z,4.20
2019-04-03T01:47:24.280Z,3.80
2019-04-03T01:48:24.476Z,4.00
2019-04-03T01:49:24.690Z,4.50
2019-04-03T01:50:24.903Z,4.80
2019-04-03T01:51:25.113Z,4.10
2019-04-03T01:52:25.330Z,4.00
2019-04-03T01:53:25.541Z,4.90
2019-04-03T01:54:25.748Z,4.40
2019-04-03T01:55:25.959Z,4.10
2019-04-03T01:56:26.177Z,4.40
2019-04-03T01:57:26.386Z,3.90
2019-04-03T01:58:28.434Z,4.30
2019-04-03T01:59:26.780Z,5.30
2019-04-03T02:00:26.993Z,4.30
2019-04-03T02:01:27.209Z,4.40
2019-04-03T02:02:27.471Z,4.30
2019-04-03T02:03:27.618Z,4.30
2019-04-03T02:04:27.963Z,4.90
2019-04-03T02:05:28.038Z,4.40
2019-04-03T02:06:28.258Z,4.60
2019-04-03T02:07:28.486Z,4.50
2019-04-03T02:08:28.679Z,5.00
2019-04-03T02:09:28.955Z,4.90
2019-04-03T02:10:29.079Z,4.70
2019-04-03T02:11:30.937Z,4.40
2019-04-03T02:12:31.453Z,4.40
2019-04-03T02:13:29.690Z,4.00
2019-04-03T02:14:31.440Z,4.30
2019-04-03T02:15:30.034Z,4.10
2019-04-03T02:16:30.289Z,4.70
2019-04-03T02:17:30.476Z,5.40
2019-04-03T02:18:30.704Z,4.60
2019-04-03T02:19:30.930Z,4.00
2019-04-03T02:20:31.152Z,4.40
2019-04-03T02:21:31.359Z,4.50
2019-04-03T02:22:31.574Z,5.00
2019-04-03T02:23:33.468Z,5.50
2019-04-03T02:24:33.440Z,5.00
2019-04-03T02:25:32.320Z,4.10
2019-04-03T02:26:33.942Z,4.30
2019-04-03T02:27:33.945Z,4.30
2019-04-03T02:28:35.206Z,4.30
2019-04-03T02:29:32.653Z,4.20
2019-04-03T02:30:32.946Z,4.40
2019-04-03T02:31:33.085Z,4.40
2019-04-03T02:32:33.393Z,3.90
2019-04-03T02:33:35.457Z,5.20
2019-04-03T02:34:35.472Z,5.30
2019-04-03T02:35:38.781Z,4.30
2019-04-03T02:36:34.024Z,5.60
2019-04-03T02:37:36.135Z,6.30
2019-04-03T02:38:34.408Z,4.70
2019-04-03T02:39:34.613Z,3.90
2019-04-03T02:40:35.055Z,4.10
2019-04-03T02:41:37.545Z,6.00
2019-04-03T02:42:40.264Z,3.90
2019-04-03T02:43:35.427Z,4.30
2019-04-03T02:44:37.445Z,3.90
2019-04-03T02:45:35.909Z,4.30
2019-04-03T02:46:37.961Z,4.20
2019-04-03T02:47:36.151Z,3.90
2019-04-03T02:48:38.780Z,4.20
2019-04-03T02:49:36.540Z,4.50
2019-04-03T02:50:36.743Z,4.80
2019-04-03T02:51:38.946Z,3.90
2019-04-03T02:52:37.214Z,4.70
2019-04-03T02:53:37.365Z,4.30
2019-04-03T02:54:37.594Z,4.00
2019-04-03T02:55:39.708Z,4.20
2019-04-03T02:56:39.941Z,4.10
2019-04-03T02:57:39.967Z,4.30
2019-04-03T02:58:38.297Z,4.20
2019-04-03T02:59:40.438Z,4.10
2019-04-03T03:00:38.642Z,5.20
2019-04-03T03:01:40.262Z,4.10
2019-04-03T03:02:39.066Z,4.20
2019-04-03T03:03:39.278Z,4.40
2019-04-03T03:04:39.494Z,4.00
2019-04-03T03:05:41.449Z,4.20
2019-04-03T03:06:41.689Z,3.80
2019-04-03T03:07:42.022Z,4.20
2019-04-03T03:08:41.916Z,4.10
2019-04-03T03:09:40.358Z,3.80
2019-04-03T03:10:42.459Z,4.00
2019-04-03T03:11:40.822Z,4.10
2019-04-03T03:12:41.117Z,4.10
2019-04-03T03:13:41.194Z,4.20
2019-04-03T03:14:41.392Z,4.30
2019-04-03T03:15:44.294Z,4.00
2019-04-03T03:16:41.830Z,5.30
2019-04-03T03:17:42.045Z,4.00
2019-04-03T03:18:42.261Z,4.50
2019-04-03T03:19:42.579Z,4.10
2019-04-03T03:20:42.837Z,4.00
2019-04-03T03:21:44.695Z,3.90
2019-04-03T03:22:43.076Z,5.20
2019-04-03T03:23:44.954Z,4.20
2019-04-03T03:24:43.413Z,5.20
2019-04-03T03:25:45.637Z,5.60
2019-04-03T03:26:45.446Z,4.30
2019-04-03T03:27:44.069Z,3.90
2019-04-03T03:28:47.388Z,4.20
2019-04-03T03:29:44.273Z,4.00
2019-04-03T03:30:54.899Z,4.70
2019-04-03T03:32:06.333Z,4.30
2019-04-03T03:32:45.203Z,4.80
2019-04-03T03:33:45.383Z,3.80
2019-04-03T03:34:57.286Z,4.10
2019-04-03T03:35:48.028Z,4.30
2019-04-03T03:36:45.993Z,4.10
2019-04-03T03:37:46.143Z,4.20
2019-04-03T03:38:46.228Z,4.00
2019-04-03T03:39:48.174Z,4.30
2019-04-03T03:40:48.598Z,4.60
2019-04-03T03:41:49.453Z,4.20
2019-04-03T03:42:48.453Z,4.90
2019-04-03T03:43:50.941Z,4.60
2019-04-03T03:44:47.214Z,3.70
2019-04-03T03:45:51.723Z,5.30
2019-04-03T03:46:47.578Z,4.90
2019-04-03T03:47:47.841Z,4.50
2019-04-03T03:48:48.003Z,4.40
2019-04-03T03:49:49.683Z,3.70
2019-04-03T03:50:48.336Z,4.20
2019-04-03T03:51:48.548Z,3.90
2019-04-03T03:52:50.685Z,3.60
2019-04-03T03:53:48.953Z,4.00
2019-04-03T03:54:51.105Z,3.70
2019-04-03T03:55:49.360Z,5.90
2019-04-03T03:56:49.584Z,4.00
2019-04-03T03:57:49.789Z,4.10
2019-04-03T03:58:50.017Z,4.80
2019-04-03T03:59:52.655Z,4.40
2019-04-03T04:00:52.263Z,4.40
2019-04-03T04:01:50.759Z,4.80
2019-04-03T04:02:50.822Z,4.70
2019-04-03T04:03:51.087Z,4.20
2019-04-03T04:04:52.964Z,4.40
2019-04-03T04:05:54.683Z,5.00
2019-04-03T04:06:51.661Z,4.20
2019-04-03T04:07:52.075Z,4.50
2019-04-03T04:08:52.068Z,4.30
2019-04-03T04:09:54.132Z,3.90
2019-04-03T04:10:58.154Z,4.40
2019-04-03T04:11:54.488Z,3.60
2019-04-03T04:12:52.652Z,4.60
2019-04-03T04:13:52.934Z,4.30
2019-04-03T04:14:56.091Z,5.10
2019-04-03T04:15:55.135Z,5.00
2019-04-03T04:16:54.956Z,4.20
2019-04-03T04:17:55.841Z,4.30
2019-04-03T04:18:57.294Z,4.40
2019-04-03T04:19:54.161Z,4.70
2019-04-03T04:20:58.118Z,3.90
2019-04-03T04:21:54.167Z,4.30
2019-04-03T04:22:54.381Z,4.10
2019-04-03T04:23:55.892Z,4.50
2019-04-03T04:24:54.807Z,4.30
2019-04-03T04:25:55.020Z,4.10
2019-04-03T04:26:55.236Z,4.20
2019-04-03T04:27:55.449Z,4.20
2019-04-03T04:28:57.448Z,4.20
2019-04-03T04:29:55.842Z,5.50
2019-04-03T04:30:56.061Z,4.00
2019-04-03T04:31:56.217Z,4.60
2019-04-03T04:32:56.631Z,4.20
2019-04-03T04:33:56.666Z,4.20
2019-04-03T04:34:56.877Z,3.90
2019-04-03T04:35:57.053Z,4.30
2019-04-03T04:36:57.264Z,4.60
2019-04-03T04:37:57.605Z,4.10
2019-04-03T04:38:59.461Z,4.90
2019-04-03T04:39:59.603Z,4.50
2019-04-03T04:40:58.124Z,4.50
2019-04-03T04:41:58.338Z,4.40
2019-04-03T04:42:58.594Z,4.20
2019-04-03T04:44:00.448Z,3.80
2019-04-03T04:45:01.589Z,4.30
2019-04-03T04:45:59.032Z,4.00
2019-04-03T04:46:59.340Z,4.20
2019-04-03T04:47:59.463Z,4.50
2019-04-03T04:48:59.604Z,4.50
2019-04-03T04:50:01.448Z,4.80
2019-04-03T04:51:00.947Z,4.90
2019-04-03T04:52:01.314Z,4.10
2019-04-03T04:53:00.340Z,4.50
2019-04-03T04:54:00.593Z,4.50
2019-04-03T04:55:02.862Z,5.60
2019-04-03T04:56:02.450Z,4.60
2019-04-03T04:57:01.043Z,4.60
2019-04-03T04:58:04.790Z,5.00
2019-04-03T04:59:02.954Z,5.00
2019-04-03T05:00:01.399Z,4.40
2019-04-03T05:01:01.610Z,4.60
2019-04-03T05:02:01.824Z,5.10
2019-04-03T05:03:02.217Z,5.30
2019-04-03T05:04:02.240Z,5.70
2019-04-03T05:05:02.488Z,4.60
2019-04-03T05:06:04.455Z,5.00
2019-04-03T05:07:02.829Z,6.00
2019-04-03T05:08:02.894Z,4.80
2019-04-03T05:09:03.888Z,5.50
2019-04-03T05:10:05.362Z,5.20
2019-04-03T05:11:07.310Z,4.70
2019-04-03T05:12:05.445Z,5.20
2019-04-03T05:13:04.787Z,4.70
2019-04-03T05:14:04.010Z,5.00
2019-04-03T05:15:04.225Z,4.90
2019-04-03T05:16:05.986Z,5.10
2019-04-03T05:17:04.660Z,6.10
2019-04-03T05:18:08.455Z,5.50
2019-04-03T05:19:09.999Z,4.90
2019-04-03T05:20:05.277Z,4.80
2019-04-03T05:21:05.465Z,4.80
2019-04-03T05:22:05.568Z,5.70
2019-04-03T05:23:07.451Z,4.90
2019-04-03T05:24:13.163Z,5.20
2019-04-03T05:25:06.169Z,4.80
2019-04-03T05:26:07.963Z,4.80
2019-04-03T05:27:07.923Z,4.90
2019-04-03T05:28:06.747Z,4.80
2019-04-03T05:29:06.954Z,5.20
2019-04-03T05:30:07.164Z,4.90
2019-04-03T05:31:08.043Z,4.90
2019-04-03T05:32:09.621Z,5.20
2019-04-03T05:33:10.608Z,5.50
2019-04-03T05:34:08.003Z,5.40
2019-04-03T05:35:08.402Z,5.10
2019-04-03T05:36:08.432Z,5.60
2019-04-03T05:37:11.426Z,6.10
2019-04-03T05:38:10.455Z,5.30
2019-04-03T05:39:12.947Z,5.40
2019-04-03T05:40:09.150Z,5.50
2019-04-03T05:41:09.479Z,5.70
2019-04-03T05:42:11.459Z,5.10
2019-04-03T05:43:09.804Z,5.30
2019-04-03T05:44:13.959Z,4.80
2019-04-03T05:45:10.143Z,6.10
2019-04-03T05:46:11.968Z,6.00
2019-04-03T05:47:10.669Z,5.70
2019-04-03T05:48:13.352Z,6.70
2019-04-03T05:49:11.083Z,5.50
2019-04-03T05:50:11.371Z,5.60
2019-04-03T05:51:11.620Z,6.70
2019-04-03T05:52:11.529Z,6.10
2019-04-03T05:53:13.451Z,5.10
2019-04-03T05:54:14.187Z,5.10
2019-04-03T05:55:11.991Z,6.80
2019-04-03T05:56:12.720Z,6.70
2019-04-03T05:57:14.059Z,6.00
2019-04-03T05:58:16.489Z,6.00
2019-04-03T05:59:12.790Z,7.10
2019-04-03T06:00:14.952Z,6.10
2019-04-03T06:01:14.947Z,6.00
2019-04-03T06:02:16.832Z,6.40
2019-04-03T06:03:16.954Z,7.20
2019-04-03T06:04:13.704Z,6.30
2019-04-03T06:05:18.522Z,6.50
2019-04-03T06:06:15.032Z,7.20
2019-04-03T06:07:14.111Z,6.00
2019-04-03T06:08:14.330Z,6.00
2019-04-03T06:09:14.644Z,5.50
2019-04-03T06:10:16.455Z,6.20
2019-04-03T06:11:14.921Z,4.20
2019-04-03T06:12:18.125Z,4.90
2019-04-03T06:13:17.608Z,5.50
2019-04-03T06:14:18.216Z,4.50
2019-04-03T06:15:17.466Z,4.70
2019-04-03T06:16:16.805Z,5.00
2019-04-03T06:17:17.960Z,5.00
2019-04-03T06:18:17.761Z,4.90
2019-04-03T06:19:16.505Z,4.90
2019-04-03T06:20:16.700Z,5.20
2019-04-03T06:21:16.907Z,5.30
2019-04-03T06:22:20.927Z,5.00
2019-04-03T06:23:21.427Z,5.20
2019-04-03T06:24:18.033Z,5.40
2019-04-03T06:25:17.783Z,5.40
2019-04-03T06:26:17.989Z,5.30
2019-04-03T06:27:19.642Z,5.20
2019-04-03T06:28:18.392Z,5.20
2019-04-03T06:29:19.331Z,5.80
2019-04-03T06:30:19.864Z,5.10
2019-04-03T06:31:21.083Z,5.10
2019-04-03T06:32:23.695Z,5.20
2019-04-03T06:33:20.175Z,5.40
2019-04-03T06:34:30.638Z,5.30
2019-04-03T06:35:21.625Z,6.10
2019-04-03T06:36:19.932Z,5.30
2019-04-03T06:37:22.277Z,5.90
2019-04-03T06:38:24.602Z,5.50
2019-04-03T06:39:23.530Z,5.90
2019-04-03T06:40:20.617Z,5.50
2019-04-03T06:41:20.749Z,6.10
2019-04-03T06:42:44.959Z,5.70
2019-04-03T06:43:21.085Z,6.40
2019-04-03T06:44:23.111Z,5.40
2019-04-03T06:45:21.456Z,5.40
2019-04-03T06:46:23.461Z,5.90
2019-04-03T06:47:21.869Z,6.00
2019-04-03T06:48:25.465Z,7.50
2019-04-03T06:49:22.305Z,5.90
2019-04-03T06:50:23.952Z,5.50
2019-04-03T06:51:25.952Z,7.40
2019-04-03T06:52:29.723Z,5.50
2019-04-03T06:53:25.783Z,6.10
2019-04-03T06:54:24.515Z,5.90
2019-04-03T06:55:31.220Z,5.50
2019-04-03T06:56:23.191Z,5.60
2019-04-03T06:57:24.950Z,5.00
2019-04-03T06:58:34.119Z,5.70
2019-04-03T06:59:25.485Z,5.30
2019-04-03T07:00:27.496Z,5.80
2019-04-03T07:01:25.958Z,6.20
2019-04-03T07:02:27.113Z,5.90
2019-04-03T07:03:25.955Z,5.80
2019-04-03T07:04:27.994Z,5.70
2019-04-03T07:05:27.767Z,6.20
2019-04-03T07:06:26.566Z,5.60
2019-04-03T07:07:33.534Z,5.80
2019-04-03T07:08:32.521Z,6.80
2019-04-03T07:09:35.589Z,6.30
2019-04-03T07:10:26.968Z,5.40
2019-04-03T07:11:28.954Z,5.90
2019-04-03T08:09:33.284Z,4.80
2019-04-03T08:37:29.582Z,4.40
2019-04-03T08:38:14.533Z,4.30
2019-04-03T08:50:24.237Z,4.50
2019-04-03T08:59:12.852Z,4.20
2019-04-03T09:04:58.811Z,3.50
2019-04-03T09:05:50.546Z,3.30
2019-04-03T09:06:44.506Z,3.30
2019-04-03T09:10:58.479Z,3.50
2019-04-03T09:12:24.346Z,3.50
2019-04-03T09:13:17.673Z,3.20
2019-04-03T09:14:06.789Z,3.50
2019-04-03T09:17:15.844Z,3.50
2019-04-03T09:17:30.132Z,3.50
2019-04-03T09:22:07.852Z,3.50
2019-04-03T09:22:44.603Z,3.30
2019-04-03T09:23:40.312Z,3.40
2019-04-03T09:24:58.375Z,3.10
2019-04-03T09:25:36.980Z,3.50
2019-04-03T09:26:51.958Z,3.70
2019-04-03T09:29:30.956Z,3.40
2019-04-03T09:30:11.928Z,4.00
2019-04-03T09:32:49.789Z,2.90
2019-04-03T09:35:25.400Z,3.70
2019-04-03T09:38:15.235Z,3.20
2019-04-03T09:38:57.210Z,3.20
2019-04-03T09:41:26.337Z,3.00
2019-04-03T09:42:27.640Z,2.80
2019-04-03T09:43:40.401Z,3.10
2019-04-03T09:44:25.728Z,2.90
2019-04-03T09:45:28.138Z,2.80
2019-04-03T09:46:25.874Z,2.70
2019-04-03T09:47:21.372Z,3.00
2019-04-03T09:48:22.425Z,3.10
2019-04-03T09:52:52.515Z,3.20
2019-04-03T09:53:41.038Z,2.60
2019-04-03T09:54:41.915Z,2.80
2019-04-03T09:57:14.377Z,2.70
2019-04-03T09:58:12.658Z,2.40
2019-04-03T09:59:15.021Z,2.50
2019-04-03T10:00:13.644Z,2.80
2019-04-03T10:01:19.918Z,2.90
2019-04-03T10:02:37.105Z,2.70
2019-04-03T10:03:16.681Z,3.20
2019-04-03T10:06:11.866Z,2.60
2019-04-03T10:07:13.754Z,2.60
2019-04-03T10:07:52.755Z,2.40
2019-04-03T10:09:02.037Z,2.70
2019-04-03T10:10:14.064Z,2.50
2019-04-03T10:10:47.098Z,2.80
2019-04-03T10:11:53.502Z,2.60
2019-04-03T10:13:09.461Z,2.70
2019-04-03T10:14:15.502Z,2.90
2019-04-03T10:14:50.727Z,2.80
2019-04-03T10:15:57.185Z,2.90
2019-04-03T10:16:49.778Z,3.30
2019-04-03T10:18:10.921Z,2.30
2019-04-03T10:18:54.771Z,2.60
2019-04-03T10:20:17.284Z,2.70
2019-04-03T10:21:19.199Z,2.60
2019-04-03T10:21:47.927Z,2.40
2019-04-03T10:23:10.407Z,2.30
2019-04-03T10:24:03.512Z,2.50
2019-04-03T10:24:52.030Z,2.70
2019-04-03T10:25:56.934Z,2.20
2019-04-03T10:26:55.987Z,2.90
2019-04-03T10:29:49.216Z,3.20
2019-04-03T10:30:24.959Z,2.90
2019-04-03T10:31:25.233Z,2.80
2019-04-03T10:34:33.320Z,2.90
2019-04-03T10:35:30.631Z,2.80
2019-04-03T10:35:54.085Z,2.40
2019-04-03T10:36:56.067Z,3.30
2019-04-03T10:37:54.488Z,2.90
2019-04-03T10:38:56.879Z,2.80
2019-04-03T10:39:56.520Z,3.00
2019-04-03T10:40:58.604Z,3.00
2019-04-03T10:42:00.399Z,2.70
2019-04-03T10:42:59.858Z,3.10
2019-04-03T10:43:57.015Z,3.20
2019-04-03T10:44:55.736Z,3.50
2019-04-03T10:45:56.306Z,3.00
2019-04-03T10:46:59.069Z,3.10
2019-04-03T10:47:56.797Z,3.40
2019-04-03T10:49:00.479Z,4.30
2019-04-03T10:49:58.650Z,3.50
2019-04-03T10:50:58.560Z,4.60
2019-04-03T10:51:57.271Z,4.00
2019-04-03T10:52:57.540Z,3.30
2019-04-03T10:53:59.037Z,3.40
2019-04-03T10:54:59.522Z,3.20
2019-04-03T10:55:59.650Z,3.40
2019-04-03T10:56:57.975Z,3.30
2019-04-03T10:58:01.907Z,3.80
2019-04-03T10:59:10.285Z,3.40
2019-04-03T11:00:00.081Z,3.70
2019-04-03T11:01:00.523Z,4.60
2019-04-03T11:01:58.752Z,3.50
2019-04-03T11:02:58.946Z,3.70
2019-04-03T11:03:59.187Z,3.60
2019-04-03T11:05:00.536Z,4.10
2019-04-03T11:06:01.806Z,3.70
2019-04-03T11:07:00.768Z,3.80
2019-04-03T11:08:01.558Z,4.00
2019-04-03T11:09:06.584Z,4.10
2019-04-03T11:12:00.897Z,4.00
2019-04-03T11:12:48.700Z,4.50
2019-04-03T11:13:34.864Z,3.80
2019-04-03T11:14:34.308Z,4.10
2019-04-03T11:15:36.250Z,3.70
2019-04-03T11:16:38.651Z,4.60
2019-04-03T11:17:35.080Z,4.60
2019-04-03T11:18:33.433Z,3.80
2019-04-03T11:19:37.210Z,3.90
2019-04-03T11:20:36.823Z,4.10
2019-04-03T11:21:33.654Z,4.00
2019-04-03T11:22:40.422Z,3.90
2019-04-03T11:35:59.403Z,3.70
2019-04-03T11:37:01.701Z,3.40
2019-04-03T11:38:06.565Z,4.30
2019-04-03T11:39:11.277Z,3.70
2019-04-03T11:40:04.950Z,4.30
2019-04-03T11:40:58.117Z,3.80
2019-04-03T11:42:00.995Z,3.60
2019-04-03T11:43:14.272Z,4.10
2019-04-03T11:45:34.209Z,3.70
2019-04-03T11:46:54.637Z,4.10
2019-04-03T11:47:53.712Z,3.40
2019-04-03T11:48:55.676Z,3.60
2019-04-03T11:49:46.783Z,4.00
2019-04-03T11:50:40.151Z,3.30
2019-04-03T11:51:33.998Z,3.60
2019-04-03T11:52:34.284Z,3.40
2019-04-03T11:53:33.051Z,3.10
2019-04-03T11:54:33.997Z,3.20
2019-04-03T11:57:06.662Z,3.40
2019-04-03T11:58:04.851Z,3.20
2019-04-03T11:59:26.980Z,3.20
2019-04-03T12:00:07.612Z,3.30
2019-04-03T12:01:17.599Z,3.50
2019-04-03T12:02:21.169Z,3.20
2019-04-03T12:03:12.102Z,3.50
2019-04-03T12:04:31.276Z,3.60
2019-04-03T12:05:34.959Z,3.10
2019-04-03T12:06:42.700Z,2.90
2019-04-03T12:07:14.013Z,3.00
2019-04-03T12:08:29.455Z,3.00
2019-04-03T12:09:31.686Z,2.80
2019-04-03T12:12:19.692Z,3.40
2019-04-03T12:12:41.857Z,3.70
2019-04-03T12:13:39.852Z,2.90
2019-04-03T12:14:54.708Z,2.80
2019-04-03T12:15:42.255Z,2.70
2019-04-03T12:17:09.149Z,2.90
2019-04-03T12:17:55.525Z,2.90
2019-04-03T12:19:05.144Z,2.90
2019-04-03T12:19:40.529Z,3.20
2019-04-03T12:20:43.359Z,3.80
2019-04-03T12:21:43.524Z,3.10
2019-04-03T12:22:42.141Z,2.90
2019-04-03T12:27:18.455Z,3.20
2019-04-03T12:28:10.425Z,3.00
2019-04-03T12:28:49.034Z,3.20
2019-04-03T12:29:48.887Z,3.10
2019-04-03T12:31:11.728Z,2.80
2019-04-03T12:32:03.966Z,2.90
2019-04-03T12:32:50.137Z,3.00
2019-04-03T12:33:56.442Z,3.10
2019-04-03T12:34:48.767Z,3.30
2019-04-03T12:36:05.938Z,3.30
2019-04-03T12:36:51.603Z,2.90
2019-04-03T12:37:50.128Z,2.90
2019-04-03T12:38:47.741Z,3.00
2019-04-03T12:40:10.807Z,2.70
2019-04-03T12:40:50.474Z,3.00
2019-04-03T12:41:50.317Z,3.00
2019-04-03T12:43:12.237Z,2.70
2019-04-03T12:44:25.452Z,3.00
2019-04-03T12:45:04.362Z,2.90
2019-04-03T12:45:59.105Z,3.10
2019-04-03T12:46:51.488Z,2.80
2019-04-03T12:47:49.312Z,3.10
2019-04-03T12:48:52.087Z,3.40
2019-04-03T12:50:05.346Z,3.10
2019-04-03T12:51:20.182Z,3.40
2019-04-03T12:53:27.618Z,3.50
2019-04-03T12:54:48.443Z,3.10
2019-04-03T12:55:28.093Z,3.30
2019-04-03T12:56:30.915Z,3.70
2019-04-03T12:57:51.620Z,3.40
2019-04-03T12:58:24.593Z,3.20
2019-04-03T12:59:51.645Z,3.70
2019-04-03T13:00:26.903Z,3.60
2019-04-03T13:01:29.925Z,3.00
2019-04-03T13:02:24.599Z,2.90
2019-04-03T13:05:01.587Z,3.90
2019-04-03T13:06:14.870Z,3.10
2019-04-03T13:07:12.516Z,3.40
2019-04-03T13:08:21.770Z,3.20
2019-04-03T13:09:22.097Z,2.90
2019-04-03T13:10:19.093Z,3.20
2019-04-03T13:10:58.595Z,3.20
2019-04-03T13:12:00.171Z,3.30
2019-04-03T13:13:01.452Z,3.20
2019-04-03T13:14:07.086Z,3.30
2019-04-03T13:16:56.186Z,4.20
2019-04-03T13:17:55.765Z,3.40
2019-04-03T13:18:34.303Z,3.30
2019-04-03T13:19:35.432Z,3.50
2019-04-03T13:20:32.485Z,3.00
2019-04-03T13:21:34.967Z,3.30
2019-04-03T13:22:32.320Z,3.30
2019-04-03T13:23:55.719Z,3.70
2019-04-03T13:24:35.238Z,3.60
2019-04-03T13:25:36.774Z,3.50
2019-04-03T13:26:37.011Z,3.60
2019-04-03T13:29:21.860Z,3.30
2019-04-03T13:31:39.829Z,2.60
2019-04-03T13:34:13.378Z,3.10
2019-04-03T13:35:14.995Z,3.40
2019-04-03T13:36:19.698Z,3.30
2019-04-03T13:37:12.153Z,5.00
2019-04-03T13:38:13.788Z,3.30
2019-04-03T13:39:11.011Z,2.70
2019-04-03T13:40:11.446Z,2.90
2019-04-03T13:41:14.561Z,3.20
2019-04-03T13:42:12.730Z,2.90
2019-04-03T13:43:44.824Z,3.40
2019-04-03T13:44:12.956Z,2.90
2019-04-03T13:45:15.017Z,2.80
2019-04-03T13:46:14.826Z,3.00
2019-04-03T13:47:39.759Z,2.70
2019-04-03T13:48:14.404Z,3.80
2019-04-03T13:49:34.165Z,2.60
2019-04-03T13:51:48.949Z,2.20
2019-04-03T13:52:49.914Z,2.40
2019-04-03T13:53:47.170Z,2.40
2019-04-03T13:55:13.541Z,2.60
2019-04-03T13:55:44.918Z,2.30
2019-04-03T13:56:48.214Z,2.90
2019-04-03T13:58:08.049Z,2.80
2019-04-03T13:59:11.884Z,2.50
2019-04-03T14:00:20.637Z,2.60
2019-04-03T14:01:09.532Z,2.10
2019-04-03T14:01:54.130Z,2.40
2019-04-03T14:03:09.707Z,2.30
2019-04-03T14:05:22.457Z,2.50
2019-04-03T14:06:23.356Z,2.40
2019-04-03T14:07:23.966Z,2.70
2019-04-03T14:08:23.083Z,2.30
2019-04-03T14:09:25.120Z,2.70
2019-04-03T14:10:21.948Z,2.40
2019-04-03T14:11:23.290Z,2.40
2019-04-03T14:12:44.248Z,3.10
2019-04-03T14:13:32.638Z,2.50
2019-04-03T14:16:18.984Z,2.80
2019-04-03T14:17:03.874Z,2.60
2019-04-03T14:17:58.443Z,2.60
2019-04-03T14:21:02.662Z,2.40
2019-04-03T14:21:47.619Z,2.20
2019-04-03T14:22:39.044Z,2.70
2019-04-03T14:23:50.835Z,2.30
2019-04-03T14:26:06.993Z,2.40
2019-04-03T14:27:26.598Z,2.20
2019-04-03T14:28:22.959Z,2.60
2019-04-03T14:29:04.253Z,2.60
2019-04-03T14:31:41.666Z,2.40
2019-04-03T14:32:56.286Z,3.00
2019-04-03T14:35:39.014Z,2.30
2019-04-03T14:36:04.844Z,2.60
2019-04-03T14:37:07.512Z,2.40
2019-04-03T14:38:20.526Z,2.20
2019-04-03T14:39:07.180Z,2.40
2019-04-03T14:42:14.511Z,2.90
2019-04-03T14:43:11.430Z,2.30
2019-04-03T14:44:02.022Z,2.80
2019-04-03T14:44:41.797Z,2.80
2019-04-03T14:45:44.471Z,3.20
2019-04-03T14:47:03.970Z,2.40
2019-04-03T14:48:03.958Z,3.50
2019-04-03T14:48:46.105Z,2.60
2019-04-03T14:49:42.951Z,3.30
2019-04-03T14:51:10.871Z,2.70
2019-04-03T14:52:04.134Z,2.50
2019-04-03T14:53:06.405Z,2.90
2019-04-03T14:54:03.448Z,3.30
2019-04-03T14:54:51.638Z,2.90
2019-04-03T14:55:56.260Z,2.90
2019-04-03T14:56:43.976Z,2.80
2019-04-03T14:59:19.654Z,3.10
2019-04-03T15:00:28.787Z,3.10
2019-04-03T15:01:35.167Z,2.80
2019-04-03T15:02:16.083Z,2.90
2019-04-03T15:03:13.696Z,3.40
2019-04-03T15:04:21.134Z,3.30
2019-04-03T15:05:15.614Z,3.20
2019-04-03T15:06:15.100Z,2.90
2019-04-03T15:07:25.700Z,2.80
2019-04-03T15:08:15.105Z,2.90
2019-04-03T15:09:18.110Z,3.00
2019-04-03T15:10:14.931Z,2.90
2019-04-03T15:11:38.726Z,2.90
2019-04-03T15:12:14.913Z,3.00
2019-04-03T15:13:17.613Z,3.00
2019-04-03T15:14:17.687Z,3.00
2019-04-03T15:15:40.141Z,3.00
2019-04-03T15:16:19.621Z,2.80
2019-04-03T15:17:20.589Z,2.90
2019-04-03T15:18:18.663Z,2.80
2019-04-03T15:19:18.116Z,3.30
2019-04-03T15:20:42.410Z,3.10
2019-04-03T15:21:42.022Z,3.30
2019-04-03T15:22:22.426Z,3.10
2019-04-03T15:23:21.945Z,3.20
2019-04-03T15:24:42.257Z,3.80
2019-04-03T15:25:33.080Z,5.10
2019-04-03T15:26:21.759Z,3.50
2019-04-03T15:27:19.577Z,3.60
2019-04-03T15:28:17.795Z,4.20
2019-04-03T15:29:20.598Z,3.70
2019-04-03T15:30:18.303Z,3.40
2019-04-03T15:31:18.391Z,3.10
2019-04-03T15:32:20.590Z,3.40
2019-04-03T15:33:18.790Z,3.40
2019-04-03T15:34:19.414Z,3.30
2019-04-03T15:35:21.085Z,3.60
2019-04-03T15:36:19.458Z,4.70
2019-04-03T15:37:19.793Z,3.50
2019-04-03T15:38:21.967Z,3.30
2019-04-03T15:39:21.633Z,4.20
2019-04-03T15:40:25.752Z,3.10
2019-04-03T15:41:20.650Z,3.80
2019-04-03T15:42:22.094Z,3.80
2019-04-03T15:43:20.588Z,3.70
2019-04-03T15:44:21.581Z,3.50
2019-04-03T15:45:24.895Z,3.30
2019-04-03T15:46:21.041Z,3.30
2019-04-03T15:47:34.456Z,3.60
2019-04-03T15:48:24.416Z,3.10
2019-04-03T15:49:25.566Z,3.40
2019-04-03T15:50:21.944Z,3.40
2019-04-03T15:51:29.775Z,3.40
2019-04-03T15:52:23.557Z,3.20
2019-04-03T15:53:25.035Z,3.20
2019-04-03T15:54:22.616Z,3.40
2019-04-03T15:55:25.123Z,3.30
2019-04-03T15:56:24.588Z,3.40
2019-04-03T15:57:23.235Z,3.40
2019-04-03T15:58:25.703Z,3.60
2019-04-03T15:59:29.652Z,3.50
2019-04-03T16:00:25.579Z,3.70
2019-04-03T16:01:23.785Z,3.80
2019-04-03T16:02:23.998Z,3.70
2019-04-03T16:03:26.168Z,3.30
2019-04-03T16:04:27.063Z,3.30
2019-04-03T16:05:26.087Z,3.40
2019-04-03T16:06:28.596Z,3.60
2019-04-03T16:07:26.609Z,3.60
2019-04-03T16:08:26.588Z,3.20
2019-04-03T16:09:25.660Z,3.10
2019-04-03T16:10:25.822Z,4.10
2019-04-03T16:11:29.808Z,3.90
2019-04-03T16:12:25.848Z,3.90
2019-04-03T16:13:26.325Z,3.70
2019-04-03T16:14:28.297Z,3.30
2019-04-03T16:15:26.709Z,3.60
2019-04-03T16:16:28.421Z,3.70
2019-04-03T16:17:28.703Z,3.60